createdAt,value
2023-05-06T00:00:51.385Z,20.25
2023-05-06T00:03:18.491Z,16.25
2023-05-06T00:05:46.450Z,13.75
2023-05-06T00:08:13.447Z,17.50
2023-05-06T00:10:41.066Z,18.25
2023-05-06T00:13:08.564Z,19.00
2023-05-06T00:17:18.209Z,19.25
2023-05-06T00:19:45.574Z,18.75
2023-05-06T00:22:13.042Z,15.50
2023-05-06T00:24:40.465Z,16.50
2023-05-06T00:27:07.703Z,16.00
2023-05-06T00:29:34.875Z,13.25
2023-05-06T00:32:01.847Z,18.50
2023-05-06T00:34:29.309Z,17.75
2023-05-06T00:36:56.261Z,16.00
2023-05-06T00:39:25.232Z,14.25
2023-05-06T00:41:52.465Z,20.25
2023-05-06T00:44:19.726Z,17.50
2023-05-06T00:46:46.797Z,20.00
2023-05-06T00:49:14.102Z,20.50
2023-05-06T00:51:41.145Z,16.75
2023-05-06T00:54:08.364Z,16.00
2023-05-06T00:56:36.261Z,21.00
2023-05-06T00:59:03.608Z,13.25
2023-05-06T01:01:31.541Z,16.50
2023-05-06T01:04:00.034Z,20.25
2023-05-06T01:06:32.289Z,15.50
2023-05-06T01:08:59.710Z,17.25
2023-05-06T01:11:45.631Z,13.50
2023-05-06T01:14:35.877Z,22.25
2023-05-06T01:17:06.490Z,14.50
2023-05-06T01:19:39.111Z,13.25
2023-05-06T01:22:07.911Z,13.75
2023-05-06T01:24:45.244Z,17.75
2023-05-06T01:27:13.253Z,13.50
2023-05-06T01:29:42.958Z,18.00
2023-05-06T01:32:31.816Z,15.75
2023-05-06T01:35:28.887Z,21.75
2023-05-06T01:38:19.700Z,15.75
2023-05-06T01:40:54.234Z,16.25
2023-05-06T01:43:22.106Z,20.00
2023-05-06T01:45:53.563Z,19.25
2023-05-06T01:48:24.512Z,14.50
2023-05-06T01:50:52.070Z,18.50
2023-05-06T01:53:18.950Z,16.25
2023-05-06T01:55:46.522Z,16.50
2023-05-06T01:58:13.793Z,19.00
2023-05-06T02:00:41.045Z,18.00
2023-05-06T02:03:08.461Z,17.25
2023-05-06T02:05:35.955Z,10.50
2023-05-06T02:08:02.983Z,17.75
2023-05-06T02:10:31.201Z,20.00
2023-05-06T02:12:58.390Z,18.00
2023-05-06T02:15:25.813Z,18.75
2023-05-06T02:17:57.496Z,18.00
2023-05-06T02:20:24.770Z,19.00
2023-05-06T02:22:51.664Z,15.00
2023-05-06T02:25:19.602Z,16.25
2023-05-06T02:27:46.526Z,18.25
2023-05-06T02:30:14.731Z,20.75
2023-05-06T02:32:41.956Z,13.25
2023-05-06T02:35:10.051Z,22.75
2023-05-06T02:37:37.100Z,18.50
2023-05-06T02:40:06.756Z,25.00
2023-05-06T02:42:34.855Z,15.50
2023-05-06T02:45:02.699Z,19.25
2023-05-06T02:47:29.859Z,16.25
2023-05-06T02:49:57.169Z,14.00
2023-05-06T02:52:24.066Z,17.75
2023-05-06T02:54:52.135Z,23.25
2023-05-06T02:57:19.112Z,19.00
2023-05-06T02:59:46.356Z,17.25
2023-05-06T03:02:13.621Z,22.25
2023-05-06T03:04:41.025Z,15.50
2023-05-06T03:07:08.191Z,17.75
2023-05-06T03:09:35.712Z,16.25
2023-05-06T03:12:03.260Z,21.50
2023-05-06T03:14:30.655Z,21.50
2023-05-06T03:16:57.992Z,18.00
2023-05-06T03:19:25.318Z,13.00
2023-05-06T03:21:52.208Z,15.00
2023-05-06T03:24:19.589Z,18.00
2023-05-06T03:26:46.555Z,16.75
2023-05-06T03:29:13.886Z,18.00
2023-05-06T03:31:41.189Z,18.00
2023-05-06T03:34:08.606Z,18.50
2023-05-06T03:36:35.711Z,16.75
2023-05-06T03:39:03.580Z,18.25
2023-05-06T03:41:35.620Z,16.25
2023-05-06T03:44:04.742Z,17.75
2023-05-06T03:46:31.729Z,18.25
2023-05-06T03:49:00.693Z,19.25
2023-05-06T03:51:27.863Z,18.75
2023-05-06T03:53:55.097Z,17.50
2023-05-06T03:56:23.147Z,18.25
2023-05-06T03:58:51.145Z,18.75
2023-05-06T04:01:18.667Z,20.75
2023-05-06T04:03:46.085Z,20.75
2023-05-06T04:06:13.268Z,15.25
2023-05-06T04:08:40.792Z,15.50
2023-05-06T04:11:08.666Z,18.25
2023-05-06T04:13:36.160Z,18.50
2023-05-06T04:16:04.155Z,16.25
2023-05-06T04:18:32.905Z,18.00
2023-05-06T04:21:00.519Z,19.00
2023-05-06T04:23:28.032Z,18.25
2023-05-06T04:25:55.032Z,14.25
2023-05-06T04:28:22.286Z,18.00
2023-05-06T04:30:49.478Z,21.25
2023-05-06T04:33:16.687Z,18.00
2023-05-06T04:35:51.454Z,13.67
2023-05-06T04:38:18.765Z,17.00
2023-05-06T04:40:45.983Z,24.00
2023-05-06T04:43:13.635Z,17.33
2023-05-06T04:45:43.647Z,18.67
2023-05-06T04:48:11.282Z,19.67
2023-05-06T04:50:38.537Z,16.00
2023-05-06T04:53:05.942Z,19.00
2023-05-06T04:55:34.105Z,19.67
2023-05-06T04:58:01.416Z,19.00
2023-05-06T05:00:28.413Z,16.67
2023-05-06T05:02:55.806Z,16.67
2023-05-06T05:05:24.353Z,18.00
2023-05-06T05:10:18.652Z,17.00
2023-05-06T05:12:46.627Z,14.67
2023-05-06T05:15:13.843Z,16.00
2023-05-06T05:17:41.283Z,17.67
2023-05-06T05:20:09.135Z,15.33
2023-05-06T05:22:36.707Z,17.00
2023-05-06T05:25:06.974Z,17.67
2023-05-06T05:27:35.113Z,16.00
2023-05-06T05:30:02.270Z,17.33
2023-05-06T05:32:29.604Z,16.33
2023-05-06T05:34:56.641Z,19.33
2023-05-06T05:37:23.970Z,14.00
2023-05-06T05:39:51.155Z,14.00
2023-05-06T05:42:18.438Z,16.00
2023-05-06T05:44:45.877Z,20.00
2023-05-06T05:47:13.316Z,9.33
2023-05-06T05:49:41.098Z,15.33
2023-05-06T05:52:09.969Z,19.67
2023-05-06T05:54:37.346Z,13.33
2023-05-06T05:57:05.081Z,15.33
2023-05-06T05:59:33.137Z,7.67
2023-05-06T06:02:00.494Z,15.67
2023-05-06T06:04:27.612Z,16.33
2023-05-06T06:06:58.172Z,19.00
2023-05-06T06:09:25.442Z,16.67
2023-05-06T06:11:52.836Z,14.33
2023-05-06T06:14:19.807Z,15.67
2023-05-06T06:16:47.190Z,17.00
2023-05-06T06:19:14.436Z,16.33
2023-05-06T06:21:41.812Z,15.33
2023-05-06T06:24:08.812Z,12.67
2023-05-06T06:26:36.223Z,18.00
2023-05-06T06:29:03.182Z,17.00
2023-05-06T06:31:31.064Z,17.67
2023-05-06T06:33:58.159Z,18.00
2023-05-06T06:36:25.462Z,12.33
2023-05-06T06:38:52.437Z,16.33
2023-05-06T06:41:19.888Z,19.00
2023-05-06T06:43:46.818Z,14.67
2023-05-06T06:46:14.199Z,14.33
2023-05-06T06:48:41.522Z,13.67
2023-05-06T06:51:08.749Z,16.00
2023-05-06T06:53:36.133Z,12.67
2023-05-06T06:56:03.546Z,14.00
2023-05-06T06:58:30.629Z,14.67
2023-05-06T07:00:57.888Z,17.67
2023-05-06T07:03:24.960Z,13.00
2023-05-06T07:05:52.251Z,13.67
2023-05-06T07:08:21.568Z,17.00
2023-05-06T07:10:49.180Z,15.00
2023-05-06T07:13:16.826Z,15.33
2023-05-06T07:15:44.555Z,13.00
2023-05-06T07:18:11.716Z,16.67
2023-05-06T07:20:39.053Z,19.00
2023-05-06T07:23:06.393Z,18.33
2023-05-06T07:25:33.798Z,18.00
2023-05-06T07:28:00.960Z,14.33
2023-05-06T07:30:28.412Z,10.00
2023-05-06T07:32:55.986Z,17.00
2023-05-06T07:35:23.512Z,20.67
2023-05-06T07:37:50.746Z,21.33
2023-05-06T07:40:18.149Z,18.33
2023-05-06T07:42:45.701Z,22.00
2023-05-06T07:45:13.153Z,19.33
2023-05-06T07:47:40.417Z,17.67
2023-05-06T07:50:08.699Z,19.00
2023-05-06T07:52:35.849Z,18.67
2023-05-06T07:55:04.493Z,18.33
2023-05-06T07:57:31.663Z,26.00
2023-05-06T07:59:59.055Z,17.67
2023-05-06T08:02:27.328Z,18.67
2023-05-06T08:04:54.779Z,20.00
2023-05-06T08:07:22.027Z,7.50
2023-05-06T08:09:49.289Z,21.75
2023-05-06T08:12:17.654Z,17.00
2023-05-06T08:14:45.172Z,18.50
2023-05-06T08:17:13.416Z,20.25
2023-05-06T08:19:40.732Z,20.75
2023-05-06T08:22:07.990Z,16.75
2023-05-06T08:24:35.509Z,20.00
2023-05-06T08:27:03.352Z,18.50
2023-05-06T08:29:30.631Z,16.25
2023-05-06T08:31:57.809Z,16.00
2023-05-06T08:34:25.341Z,15.75
2023-05-06T08:36:52.391Z,15.75
2023-05-06T08:39:19.799Z,20.75
2023-05-06T08:41:48.790Z,16.50
2023-05-06T08:44:19.519Z,19.00
2023-05-06T08:46:47.369Z,23.33
2023-05-06T08:49:14.948Z,22.50
2023-05-06T08:51:44.519Z,18.67
2023-05-06T08:54:13.028Z,16.25
2023-05-06T08:56:43.889Z,17.00
2023-05-06T08:59:11.936Z,17.25
2023-05-06T09:01:39.744Z,17.00
2023-05-06T09:04:10.308Z,18.33
2023-05-06T09:06:37.699Z,18.00
2023-05-06T09:09:04.763Z,17.67
2023-05-06T09:11:32.508Z,14.00
2023-05-06T09:14:13.819Z,19.67
2023-05-06T09:16:46.138Z,18.00
2023-05-06T09:19:14.148Z,13.33
2023-05-06T09:21:44.041Z,19.00
2023-05-06T09:24:12.450Z,21.67
2023-05-06T09:26:42.464Z,23.67
2023-05-06T09:29:11.401Z,14.67
2023-05-06T09:31:46.770Z,16.33
2023-05-06T09:34:14.904Z,20.00
2023-05-06T09:36:42.755Z,19.67
2023-05-06T09:39:10.306Z,17.33
2023-05-06T09:41:37.923Z,23.33
2023-05-06T09:44:06.278Z,21.00
2023-05-06T09:46:33.842Z,19.67
2023-05-06T09:49:01.721Z,20.33
2023-05-06T09:51:31.242Z,20.67
2023-05-06T09:53:59.617Z,21.33
2023-05-06T09:56:27.501Z,24.33
2023-05-06T09:58:55.783Z,23.67
2023-05-06T10:01:35.435Z,57.00
2023-05-06T10:04:06.787Z,62.75
2023-05-06T10:06:36.952Z,65.25
2023-05-06T10:09:06.475Z,68.50
2023-05-06T10:11:34.474Z,60.50
2023-05-06T10:14:02.390Z,58.00
2023-05-06T10:16:30.281Z,38.00
2023-05-06T10:18:57.941Z,30.67
2023-05-06T10:21:28.153Z,28.33
2023-05-06T10:24:09.482Z,32.00
2023-05-06T10:26:37.978Z,40.00
2023-05-06T10:29:11.942Z,33.00
2023-05-06T10:31:45.011Z,23.33
2023-05-06T10:34:12.201Z,24.00
2023-05-06T10:36:40.478Z,29.00
2023-05-06T10:39:10.860Z,31.33
2023-05-06T10:41:38.791Z,31.00
2023-05-06T10:44:07.298Z,31.33
2023-05-06T10:46:58.947Z,32.67
2023-05-06T10:49:26.614Z,31.33
2023-05-06T10:52:21.172Z,35.33
2023-05-06T10:54:53.194Z,36.67
2023-05-06T10:57:27.079Z,32.67
2023-05-06T10:59:55.798Z,37.67
2023-05-06T11:02:24.226Z,31.33
2023-05-06T11:04:53.283Z,34.67
2023-05-06T11:07:24.446Z,36.67
2023-05-06T11:09:56.481Z,34.33
2023-05-06T11:12:52.068Z,33.67
2023-05-06T11:15:27.166Z,34.00
2023-05-06T11:17:56.636Z,33.67
2023-05-06T11:20:25.756Z,31.33
2023-05-06T11:22:53.862Z,36.00
2023-05-06T11:25:40.376Z,37.33
2023-05-06T11:28:12.683Z,41.67
2023-05-06T11:30:43.486Z,36.00
2023-05-06T11:33:20.097Z,37.67
2023-05-06T11:35:48.347Z,32.00
2023-05-06T11:38:15.842Z,31.33
2023-05-06T11:40:43.679Z,45.00
2023-05-06T11:43:15.074Z,34.33
2023-05-06T11:45:47.530Z,35.67
2023-05-06T11:48:15.619Z,26.67
2023-05-06T11:50:47.592Z,34.67
2023-05-06T11:53:19.262Z,36.00
2023-05-06T11:55:47.225Z,39.00
2023-05-06T11:58:20.163Z,29.67
2023-05-06T12:00:53.604Z,34.00
2023-05-06T12:03:21.716Z,32.00
2023-05-06T12:05:49.617Z,40.33
2023-05-06T12:08:32.301Z,29.00
2023-05-06T12:11:05.058Z,30.33
2023-05-06T12:13:35.019Z,35.00
2023-05-06T12:16:03.459Z,33.00
2023-05-06T12:18:31.435Z,31.67
2023-05-06T12:21:03.229Z,17.67
2023-05-06T12:23:30.906Z,25.00
2023-05-06T12:26:06.754Z,34.00
2023-05-06T12:28:37.016Z,42.00
2023-05-06T12:31:24.371Z,46.67
2023-05-06T12:33:51.894Z,41.67
2023-05-06T12:36:19.752Z,38.00
2023-05-06T12:38:54.540Z,49.75
2023-05-06T12:41:22.637Z,44.33
2023-05-06T12:43:50.489Z,42.33
2023-05-06T12:46:18.146Z,47.50
2023-05-06T12:48:58.138Z,44.00
2023-05-06T12:51:25.601Z,49.00
2023-05-06T12:53:54.284Z,45.00
2023-05-06T12:56:22.692Z,39.67
2023-05-06T12:59:01.204Z,48.00
2023-05-06T13:01:28.310Z,51.67
2023-05-06T13:03:57.580Z,51.00
2023-05-06T13:06:25.149Z,45.00
2023-05-06T13:08:52.799Z,45.00
2023-05-06T13:11:21.641Z,41.00
2023-05-06T13:13:49.288Z,44.67
2023-05-06T13:16:16.545Z,45.67
2023-05-06T13:18:44.400Z,37.33
2023-05-06T13:21:13.340Z,46.33
2023-05-06T13:23:47.017Z,50.00
2023-05-06T13:26:14.972Z,48.67
2023-05-06T13:28:42.548Z,40.67
2023-05-06T13:31:09.923Z,53.67
2023-05-06T13:33:37.566Z,48.33
2023-05-06T13:36:05.639Z,47.67
2023-05-06T13:38:33.074Z,56.33
2023-05-06T13:41:00.218Z,58.33
2023-05-06T13:43:27.810Z,55.00
2023-05-06T13:45:55.167Z,51.67
2023-05-06T13:48:22.730Z,54.00
2023-05-06T13:50:49.894Z,50.33
2023-05-06T13:53:17.682Z,49.00
2023-05-06T13:55:44.781Z,45.00
2023-05-06T13:58:12.288Z,43.67
2023-05-06T14:00:39.913Z,50.33
2023-05-06T14:03:07.918Z,47.67
2023-05-06T14:05:35.148Z,49.33
2023-05-06T14:08:02.656Z,51.00
2023-05-06T14:10:30.036Z,51.00
2023-05-06T14:12:58.036Z,55.00
2023-05-06T14:15:25.084Z,51.67
2023-05-06T14:17:52.595Z,51.00
2023-05-06T14:20:19.822Z,51.67
2023-05-06T14:22:49.042Z,55.00
2023-05-06T14:25:16.548Z,51.00
2023-05-06T14:27:45.795Z,61.00
2023-05-06T14:30:13.554Z,52.67
2023-05-06T14:32:41.219Z,51.67
2023-05-06T14:35:09.413Z,58.00
2023-05-06T14:37:37.947Z,58.67
2023-05-06T14:40:06.031Z,58.00
2023-05-06T14:42:33.587Z,49.33
2023-05-06T14:45:00.884Z,50.67
2023-05-06T14:47:28.618Z,58.67
2023-05-06T14:49:55.564Z,52.33
2023-05-06T14:52:23.273Z,53.67
2023-05-06T14:54:50.648Z,50.00
2023-05-06T14:57:18.301Z,57.00
2023-05-06T14:59:46.221Z,57.67
2023-05-06T15:02:13.822Z,54.00
2023-05-06T15:04:41.305Z,56.33
2023-05-06T15:07:08.733Z,53.00
2023-05-06T15:09:36.012Z,48.33
2023-05-06T15:12:03.704Z,44.00
2023-05-06T15:14:30.676Z,47.00
2023-05-06T15:16:58.843Z,37.67
2023-05-06T15:19:26.170Z,30.00
2023-05-06T15:21:53.499Z,36.00
2023-05-06T15:24:21.135Z,39.33
2023-05-06T15:26:48.665Z,34.67
2023-05-06T15:29:16.046Z,38.67
2023-05-06T15:31:46.960Z,33.00
2023-05-06T15:34:14.837Z,39.33
2023-05-06T15:36:42.621Z,22.00
2023-05-06T15:39:10.625Z,43.67
2023-05-06T15:41:38.620Z,44.00
2023-05-06T15:44:06.582Z,38.00
2023-05-06T15:46:34.614Z,37.67
2023-05-06T15:49:29.558Z,31.00
2023-05-06T15:51:49.972Z,32.67
2023-05-06T15:54:19.854Z,29.33
2023-05-06T15:56:47.652Z,24.00
2023-05-06T15:59:15.344Z,35.33
2023-05-06T16:02:24.413Z,25.67
2023-05-06T16:04:31.193Z,30.67
2023-05-06T16:06:59.008Z,33.25
2023-05-06T16:09:26.538Z,25.75
2023-05-06T16:12:46.355Z,23.75
2023-05-06T16:15:13.950Z,17.75
2023-05-06T16:17:41.780Z,26.00
2023-05-06T16:20:13.034Z,25.00
2023-05-06T16:22:41.265Z,16.25
2023-05-06T16:25:08.762Z,26.50
2023-05-06T16:27:36.257Z,21.50
2023-05-06T16:30:03.900Z,20.50
2023-05-06T16:32:31.332Z,23.75
2023-05-06T16:34:59.859Z,17.25
2023-05-06T16:37:29.392Z,21.00
2023-05-06T16:39:56.741Z,21.75
2023-05-06T16:42:24.312Z,23.75
2023-05-06T16:44:51.835Z,22.00
2023-05-06T16:47:24.505Z,21.50
2023-05-06T16:49:52.422Z,24.75
2023-05-06T16:52:20.225Z,26.00
2023-05-06T16:54:47.636Z,25.00
2023-05-06T16:57:15.441Z,24.00
2023-05-06T16:59:43.150Z,28.50
2023-05-06T17:02:10.804Z,23.50
2023-05-06T17:04:38.037Z,24.25
2023-05-06T17:07:05.947Z,19.50
2023-05-06T17:09:33.177Z,21.25
2023-05-06T17:12:01.318Z,21.75
2023-05-06T17:14:29.148Z,22.50
2023-05-06T17:16:57.062Z,22.50
2023-05-06T17:19:24.283Z,27.00
2023-05-06T17:21:52.139Z,22.33
2023-05-06T17:24:19.715Z,28.33
2023-05-06T17:26:47.637Z,21.00
2023-05-06T17:29:15.508Z,25.00
2023-05-06T17:31:43.217Z,23.00
2023-05-06T17:34:11.114Z,29.67
2023-05-06T17:36:38.687Z,24.33
2023-05-06T17:39:06.360Z,24.67
2023-05-06T17:41:34.117Z,22.00
2023-05-06T17:44:19.966Z,30.33
2023-05-06T17:46:47.704Z,12.33
2023-05-06T17:49:15.046Z,30.33
2023-05-06T17:51:45.486Z,24.00
2023-05-06T17:54:12.928Z,30.00
2023-05-06T17:56:40.817Z,29.67
2023-05-06T17:59:08.118Z,32.33
2023-05-06T18:01:36.691Z,32.67
2023-05-06T18:04:04.361Z,29.00
2023-05-06T18:06:32.336Z,34.00
2023-05-06T18:08:59.611Z,39.33
2023-05-06T18:11:27.749Z,30.00
2023-05-06T18:13:55.313Z,35.00
2023-05-06T18:16:22.974Z,31.00
2023-05-06T18:18:50.268Z,27.00
2023-05-06T18:21:17.623Z,38.33
2023-05-06T18:23:46.221Z,37.33
2023-05-06T18:26:18.695Z,38.33
2023-05-06T18:28:52.082Z,35.67
2023-05-06T18:31:20.436Z,37.00
2023-05-06T18:33:47.758Z,51.00
2023-05-06T18:36:15.948Z,57.25
2023-05-06T18:38:43.178Z,56.25
2023-05-06T18:41:10.872Z,50.00
2023-05-06T18:43:38.396Z,53.25
2023-05-06T18:46:06.519Z,49.67
2023-05-06T18:48:33.824Z,54.33
2023-05-06T18:51:14.327Z,49.00
2023-05-06T18:53:45.966Z,49.75
2023-05-06T18:56:14.272Z,45.33
2023-05-06T18:58:44.869Z,46.00
2023-05-06T19:01:12.582Z,44.00
2023-05-06T19:03:40.260Z,45.67
2023-05-06T19:06:09.412Z,44.33
2023-05-06T19:08:37.521Z,36.00
2023-05-06T19:11:05.988Z,34.00
2023-05-06T19:13:33.536Z,33.00
2023-05-06T19:16:01.159Z,29.00
2023-05-06T19:18:28.861Z,28.67
2023-05-06T19:20:56.980Z,30.00
2023-05-06T19:23:24.298Z,36.33
2023-05-06T19:25:51.979Z,33.33
2023-05-06T19:28:19.319Z,31.33
2023-05-06T19:30:48.333Z,35.33
2023-05-06T19:33:16.476Z,39.33
2023-05-06T19:35:44.397Z,34.00
2023-05-06T19:38:13.005Z,35.67
2023-05-06T19:40:40.712Z,33.67
2023-05-06T19:43:07.754Z,25.00
2023-05-06T19:45:36.965Z,33.67
2023-05-06T19:48:04.524Z,39.67
2023-05-06T19:50:36.039Z,33.67
2023-05-06T19:53:03.628Z,33.00
2023-05-06T19:55:31.913Z,27.00
2023-05-06T19:57:59.817Z,23.67
2023-05-06T20:00:28.233Z,33.33
2023-05-06T20:02:57.995Z,29.33
2023-05-06T20:05:32.370Z,27.00
2023-05-06T20:08:00.084Z,26.67
2023-05-06T20:10:28.668Z,30.67
2023-05-06T20:12:57.776Z,28.00
2023-05-06T20:15:26.855Z,36.67
2023-05-06T20:17:54.186Z,32.33
2023-05-06T20:20:22.015Z,33.33
2023-05-06T20:22:49.317Z,24.67
2023-05-06T20:25:17.661Z,37.67
2023-05-06T20:27:45.814Z,45.00
2023-05-06T20:30:14.345Z,41.67
2023-05-06T20:32:42.246Z,40.00
2023-05-06T20:35:10.180Z,34.00
2023-05-06T20:37:38.306Z,34.00
2023-05-06T20:40:07.942Z,29.67
2023-05-06T20:42:35.247Z,34.00
2023-05-06T20:45:04.030Z,34.00
2023-05-06T20:47:31.184Z,33.33
2023-05-06T20:49:58.691Z,32.00
2023-05-06T20:52:25.896Z,30.00
2023-05-06T20:54:53.600Z,31.33
2023-05-06T20:57:21.585Z,31.33
2023-05-06T20:59:52.685Z,33.33
2023-05-06T21:02:19.970Z,30.67
2023-05-06T21:04:47.578Z,30.33
2023-05-06T21:07:14.913Z,34.33
2023-05-06T21:09:42.260Z,24.00
2023-05-06T21:12:09.439Z,32.00
2023-05-06T21:14:37.235Z,28.67
2023-05-06T21:17:04.181Z,24.00
2023-05-06T21:19:31.562Z,33.33
2023-05-06T21:21:58.564Z,33.00
2023-05-06T21:24:26.178Z,23.33
2023-05-06T21:26:53.875Z,31.33
2023-05-06T21:29:21.778Z,31.00
2023-05-06T21:31:48.837Z,26.33
2023-05-06T21:34:16.259Z,29.67
2023-05-06T21:36:43.445Z,26.67
2023-05-06T21:39:12.559Z,33.67
2023-05-06T21:41:40.212Z,26.00
2023-05-06T21:44:08.546Z,25.33
2023-05-06T21:46:37.075Z,30.33
2023-05-06T21:49:05.042Z,36.67
2023-05-06T21:51:34.869Z,30.33
2023-05-06T21:54:02.809Z,27.33
2023-05-06T21:56:30.177Z,29.67
2023-05-06T21:58:57.574Z,27.67
2023-05-06T22:01:27.877Z,29.00
2023-05-06T22:03:55.755Z,16.67
2023-05-06T22:06:22.881Z,35.00
2023-05-06T22:08:50.123Z,33.00
2023-05-06T22:11:17.457Z,36.00
2023-05-06T22:13:44.795Z,23.67
2023-05-06T22:16:11.910Z,29.67
2023-05-06T22:18:41.736Z,25.00
2023-05-06T22:21:09.918Z,27.33
2023-05-06T22:23:37.952Z,23.00
2023-05-06T22:26:05.274Z,27.67
2023-05-06T22:28:32.933Z,23.33
2023-05-06T22:30:59.850Z,23.00
2023-05-06T22:33:27.580Z,26.33
2023-05-06T22:35:55.639Z,20.00
2023-05-06T22:38:23.224Z,33.00
2023-05-06T22:40:50.401Z,29.00
2023-05-06T22:43:17.825Z,30.67
2023-05-06T22:45:44.959Z,23.33
2023-05-06T22:48:12.531Z,25.00
2023-05-06T22:50:39.588Z,25.33
2023-05-06T22:53:14.816Z,26.00
2023-05-06T22:55:42.941Z,32.00
2023-05-06T22:58:10.886Z,31.33
2023-05-06T23:00:37.851Z,24.67
2023-05-06T23:03:06.192Z,26.67
2023-05-06T23:05:33.344Z,27.33
2023-05-06T23:08:00.671Z,30.67
2023-05-06T23:10:28.210Z,32.00
2023-05-06T23:12:55.901Z,37.75
2023-05-06T23:15:23.206Z,27.67
2023-05-06T23:17:50.588Z,35.33
2023-05-06T23:20:17.768Z,25.33
2023-05-06T23:22:45.144Z,26.67
2023-05-06T23:25:12.347Z,30.50
2023-05-06T23:27:40.442Z,37.50
2023-05-06T23:30:08.291Z,35.00
2023-05-06T23:32:36.137Z,35.67
2023-05-06T23:35:04.849Z,34.25
2023-05-06T23:37:32.259Z,41.50
2023-05-06T23:39:59.444Z,31.67
2023-05-06T23:42:26.746Z,34.25
2023-05-06T23:44:53.778Z,30.00
2023-05-06T23:47:21.113Z,33.00
2023-05-06T23:49:48.145Z,30.33
2023-05-06T23:52:15.472Z,31.00
2023-05-06T23:54:42.457Z,34.25
2023-05-06T23:57:09.621Z,34.25
2023-05-06T23:59:36.830Z,32.50
